createdAt,value
2023-01-28T00:01:35.047Z,99845.63
2023-01-28T00:06:38.080Z,99888.53
2023-01-28T00:11:40.157Z,99863.66
2023-01-28T00:16:42.265Z,99894.97
2023-01-28T00:21:44.373Z,99910.34
2023-01-28T00:26:46.495Z,99904.31
2023-01-28T00:31:49.012Z,99908.44
2023-01-28T00:36:58.063Z,99911.28
2023-01-28T00:42:00.181Z,99901.63
2023-01-28T00:47:02.398Z,99894.72
2023-01-28T00:52:04.840Z,99916.00
2023-01-28T00:57:08.485Z,99895.72
2023-01-28T01:02:13.757Z,99916.31
2023-01-28T01:07:15.983Z,99871.78
2023-01-28T01:12:18.484Z,99935.78
2023-01-28T01:17:22.084Z,99912.34
2023-01-28T01:22:24.340Z,99927.19
2023-01-28T01:27:26.843Z,99926.16
2023-01-28T01:32:33.341Z,99900.34
2023-01-28T01:37:36.856Z,99929.81
2023-01-28T01:42:38.975Z,99938.84
2023-01-28T01:47:55.866Z,99942.03
2023-01-28T01:53:03.594Z,99939.38
2023-01-28T01:58:09.794Z,99936.56
2023-01-28T02:03:12.488Z,99944.53
2023-01-28T02:08:23.957Z,99921.94
2023-01-28T02:13:32.006Z,99964.50
2023-01-28T02:18:34.890Z,99936.63
2023-01-28T02:23:45.372Z,99970.25
2023-01-28T02:29:14.668Z,99968.13
2023-01-28T02:34:35.238Z,99947.78
2023-01-28T02:39:45.867Z,99937.31
2023-01-28T02:44:47.996Z,99962.00
2023-01-28T02:49:56.824Z,99972.34
2023-01-28T02:55:10.411Z,99941.41
2023-01-28T03:00:12.500Z,99989.03
2023-01-28T03:05:23.509Z,99955.38
2023-01-28T03:10:28.747Z,99980.25
2023-01-28T03:15:58.905Z,99997.31
2023-01-28T03:21:45.568Z,100005.84
2023-01-28T03:27:22.448Z,99966.66
2023-01-28T03:32:44.210Z,99979.25
2023-01-28T03:37:46.512Z,100016.72
2023-01-28T03:42:48.672Z,100017.63
2023-01-28T03:47:50.919Z,99987.84
2023-01-28T03:52:53.060Z,99981.34
2023-01-28T03:57:55.148Z,100009.00
2023-01-28T04:02:57.338Z,100010.84
2023-01-28T04:07:59.451Z,99999.19
2023-01-28T04:13:01.558Z,100026.75
2023-01-28T04:18:03.724Z,100040.88
2023-01-28T04:23:08.221Z,100030.69
2023-01-28T04:28:10.343Z,100024.66
2023-01-28T04:33:12.433Z,100058.75
2023-01-28T04:38:14.519Z,100050.78
2023-01-28T04:43:16.608Z,100027.84
2023-01-28T04:48:18.828Z,100069.84
2023-01-28T04:53:21.062Z,100047.78
2023-01-28T04:58:23.155Z,100088.59
2023-01-28T05:03:25.847Z,100044.78
2023-01-28T05:08:27.993Z,100067.09
2023-01-28T05:13:30.298Z,100090.78
2023-01-28T05:18:32.897Z,100045.97
2023-01-28T05:23:35.133Z,100112.97
2023-01-28T05:28:37.440Z,100065.19
2023-01-28T05:33:39.742Z,100059.75
2023-01-28T05:38:42.055Z,100031.41
2023-01-28T05:43:44.189Z,100140.50
2023-01-28T05:48:46.534Z,100131.00
2023-01-28T05:53:48.667Z,100113.16
2023-01-28T05:58:50.828Z,100151.13
2023-01-28T06:03:53.059Z,100127.47
2023-01-28T06:08:55.498Z,100165.41
2023-01-28T06:13:57.792Z,100108.06
2023-01-28T06:19:00.184Z,100129.63
2023-01-28T06:24:02.481Z,100182.47
2023-01-28T06:29:04.702Z,100186.94
2023-01-28T06:34:06.828Z,100156.28
2023-01-28T06:39:09.038Z,100168.28
2023-01-28T06:44:11.600Z,100176.56
2023-01-28T06:49:13.741Z,100194.44
2023-01-28T06:54:16.255Z,100173.09
2023-01-28T06:59:18.745Z,100185.44
2023-01-28T07:04:21.284Z,100153.59
2023-01-28T07:09:23.617Z,100161.13
2023-01-28T07:14:25.892Z,100147.22
2023-01-28T07:19:28.314Z,100167.06
2023-01-28T07:24:31.220Z,100105.63
2023-01-28T07:29:37.495Z,100158.06
2023-01-28T07:34:42.089Z,100132.75
2023-01-28T07:39:46.893Z,100134.25
2023-01-28T07:44:50.217Z,100174.88
2023-01-28T07:49:52.667Z,100116.94
2023-01-28T07:54:55.867Z,100184.34
2023-01-28T07:59:58.114Z,100209.84
2023-01-28T08:05:01.906Z,100207.34
2023-01-28T08:10:04.541Z,100222.00
2023-01-28T08:15:07.878Z,100226.94
2023-01-28T08:20:10.808Z,100224.63
2023-01-28T08:25:13.412Z,100247.72
2023-01-28T08:30:16.094Z,100225.25
2023-01-28T08:35:18.403Z,100250.91
2023-01-28T08:40:21.335Z,100210.38
2023-01-28T08:45:30.896Z,100310.53
2023-01-28T08:50:36.188Z,100226.50
2023-01-28T08:55:38.872Z,100242.66
2023-01-28T09:00:41.827Z,100366.31
2023-01-28T09:05:45.900Z,100258.75
2023-01-28T09:10:48.092Z,100257.31
2023-01-28T09:15:51.590Z,100290.25
2023-01-28T09:20:53.949Z,100289.47
2023-01-28T09:26:04.173Z,100299.59
2023-01-28T09:31:10.387Z,100365.31
2023-01-28T09:36:12.652Z,100327.97
2023-01-28T09:41:34.310Z,100241.31
2023-01-28T09:46:38.715Z,100240.88
2023-01-28T09:51:52.738Z,100241.41
2023-01-28T09:57:14.999Z,100273.06
2023-01-28T10:02:43.352Z,100347.28
2023-01-28T10:08:13.984Z,100331.25
2023-01-28T10:13:31.026Z,100336.16
2023-01-28T10:18:54.653Z,100335.97
2023-01-28T10:24:02.344Z,100200.84
2023-01-28T10:29:18.893Z,100314.44
2023-01-28T10:34:24.649Z,100261.81
2023-01-28T10:39:28.833Z,100244.91
2023-01-28T10:44:39.239Z,100255.56
2023-01-28T10:49:55.768Z,100249.50
2023-01-28T10:55:06.314Z,100231.50
2023-01-28T11:00:33.768Z,100199.50
2023-01-28T11:05:38.935Z,100247.19
2023-01-28T11:10:41.937Z,100202.72
2023-01-28T11:16:08.137Z,100279.91
2023-01-28T11:21:25.121Z,100292.91
2023-01-28T11:26:31.211Z,100291.31
2023-01-28T11:31:43.262Z,100276.72
2023-01-28T11:36:54.363Z,100283.63
2023-01-28T11:42:16.640Z,100292.91
2023-01-28T11:47:46.473Z,100291.09
2023-01-28T11:53:07.085Z,100289.88
2023-01-28T11:58:40.129Z,100289.06
2023-01-28T12:03:44.985Z,100269.59
2023-01-28T12:09:13.930Z,100283.75
2023-01-28T12:14:39.552Z,100270.09
2023-01-28T12:20:20.729Z,100260.72
2023-01-28T12:25:34.708Z,100277.09
2023-01-28T12:31:14.057Z,100267.81
2023-01-28T12:36:28.971Z,100247.13
2023-01-28T12:41:42.539Z,100234.47
2023-01-28T12:46:54.045Z,100272.00
2023-01-28T12:52:22.841Z,100252.72
2023-01-28T12:57:31.963Z,100145.19
2023-01-28T13:02:41.745Z,100235.91
2023-01-28T13:07:56.800Z,100187.94
2023-01-28T13:13:01.147Z,100144.25
2023-01-28T13:18:06.105Z,100164.31
2023-01-28T13:23:23.619Z,100210.06
2023-01-28T13:28:32.886Z,100186.88
2023-01-28T13:33:38.546Z,100191.44
2023-01-28T13:38:42.863Z,100210.50
2023-01-28T13:43:45.225Z,100214.41
2023-01-28T13:48:52.514Z,100292.69
2023-01-28T13:54:06.088Z,100164.31
2023-01-28T13:59:26.305Z,100290.84
2023-01-28T14:04:46.993Z,100291.03
2023-01-28T14:10:12.268Z,100291.22
2023-01-28T14:15:40.717Z,100251.88
2023-01-28T14:20:46.371Z,100238.22
2023-01-28T14:26:01.092Z,100227.84
2023-01-28T14:31:19.089Z,100296.97
2023-01-28T14:36:22.164Z,100219.97
2023-01-28T14:41:28.477Z,100276.03
2023-01-28T14:46:46.811Z,100317.22
2023-01-28T14:52:04.036Z,100323.19
2023-01-28T14:57:43.635Z,100321.38
2023-01-28T15:02:46.093Z,100262.47
2023-01-28T15:07:49.617Z,100233.72
2023-01-28T15:12:56.619Z,100281.38
2023-01-28T15:18:04.323Z,100248.75
2023-01-28T15:23:09.538Z,100298.09
2023-01-28T15:28:41.277Z,100254.19
2023-01-28T15:33:43.482Z,100305.72
2023-01-28T15:38:45.690Z,100258.00
2023-01-28T15:43:51.187Z,100312.41
2023-01-28T15:49:17.657Z,100361.44
2023-01-28T15:54:20.899Z,100371.69
2023-01-28T15:59:28.266Z,100388.53
2023-01-28T16:04:30.878Z,100343.44
2023-01-28T16:09:34.783Z,100416.00
2023-01-28T16:14:50.953Z,100409.97
2023-01-28T16:20:04.912Z,100414.59
2023-01-28T16:25:22.079Z,100426.91
2023-01-28T16:30:24.646Z,100440.72
2023-01-28T16:35:47.163Z,100348.56
2023-01-28T16:40:55.555Z,100379.81
2023-01-28T16:45:58.061Z,100388.75
2023-01-28T16:51:00.389Z,100385.78
2023-01-28T16:56:03.211Z,100380.75
2023-01-28T17:01:05.750Z,100469.13
2023-01-28T17:06:09.388Z,100384.59
2023-01-28T17:11:12.043Z,100438.56
2023-01-28T17:16:14.274Z,100382.28
2023-01-28T17:21:16.930Z,100479.38
2023-01-28T17:26:19.244Z,100437.66
2023-01-28T17:31:22.515Z,100497.25
2023-01-28T17:36:26.073Z,100491.56
2023-01-28T17:41:28.461Z,100504.91
2023-01-28T17:46:30.628Z,100498.59
2023-01-28T17:51:33.027Z,100507.53
2023-01-28T17:56:35.173Z,100508.34
2023-01-28T18:01:37.831Z,100555.00
2023-01-28T18:06:40.214Z,100557.03
2023-01-28T18:11:43.031Z,100537.84
2023-01-28T18:16:45.226Z,100501.78
2023-01-28T18:21:52.971Z,100577.22
2023-01-28T18:27:00.767Z,100586.06
2023-01-28T18:32:03.119Z,100569.97
2023-01-28T18:37:07.060Z,100580.38
2023-01-28T18:42:09.247Z,100601.06
2023-01-28T18:47:11.817Z,100608.72
2023-01-28T18:52:13.923Z,100608.22
2023-01-28T18:57:16.198Z,100621.25
2023-01-28T19:02:20.363Z,100602.16
2023-01-28T19:07:22.809Z,100591.13
2023-01-28T19:12:25.087Z,100534.25
2023-01-28T19:17:27.520Z,100594.69
2023-01-28T19:22:29.859Z,100563.47
2023-01-28T19:27:32.136Z,100584.00
2023-01-28T19:32:34.620Z,100625.41
2023-01-28T19:37:36.942Z,100578.66
2023-01-28T19:42:40.117Z,100649.47
2023-01-28T19:47:42.540Z,100660.34
2023-01-28T19:52:44.983Z,100653.03
2023-01-28T19:57:47.104Z,100623.44
2023-01-28T20:02:52.494Z,100642.16
2023-01-28T20:07:54.710Z,100637.31
2023-01-28T20:12:56.934Z,100615.91
2023-01-28T20:17:59.150Z,100637.16
2023-01-28T20:23:05.935Z,100647.50
2023-01-28T20:28:08.140Z,100605.19
2023-01-28T20:33:10.411Z,100595.03
2023-01-28T20:38:14.416Z,100690.59
2023-01-28T20:43:16.656Z,100695.44
2023-01-28T20:48:18.813Z,100633.22
2023-01-28T20:53:21.144Z,100697.94
2023-01-28T20:58:23.391Z,100661.63
2023-01-28T21:03:26.386Z,100606.72
2023-01-28T21:08:28.636Z,100714.94
2023-01-28T21:13:30.874Z,100698.03
2023-01-28T21:18:33.522Z,100673.28
2023-01-28T21:23:36.115Z,100637.13
2023-01-28T21:28:38.749Z,100638.13
2023-01-28T21:33:43.399Z,100630.06
2023-01-28T21:38:46.421Z,100675.38
2023-01-28T21:43:55.212Z,100633.75
2023-01-28T21:48:59.687Z,100667.75
2023-01-28T21:54:03.294Z,100719.50
2023-01-28T21:59:24.128Z,100720.81
2023-01-28T22:04:37.050Z,100704.84
2023-01-28T22:09:40.525Z,100756.59
2023-01-28T22:14:44.192Z,100758.59
2023-01-28T22:19:48.715Z,100767.25
2023-01-28T22:24:51.132Z,100743.16
2023-01-28T22:29:54.215Z,100729.81
2023-01-28T22:34:56.358Z,100733.53
2023-01-28T22:39:58.509Z,100756.94
2023-01-28T22:45:00.692Z,100693.13
2023-01-28T22:50:02.941Z,100701.94
2023-01-28T22:55:05.540Z,100748.59
2023-01-28T23:00:15.169Z,100767.72
2023-01-28T23:05:17.749Z,100767.59
2023-01-28T23:10:21.176Z,100766.25
2023-01-28T23:15:42.031Z,100741.88
2023-01-28T23:21:02.630Z,100746.41
2023-01-28T23:26:06.792Z,100771.84
2023-01-28T23:31:09.282Z,100773.59
2023-01-28T23:36:11.490Z,100756.94
2023-01-28T23:41:13.694Z,100757.38
2023-01-28T23:46:15.909Z,100741.63
2023-01-28T23:51:19.367Z,100745.34
2023-01-28T23:56:21.547Z,100745.34
